Time;durP1;ratioP1;P1;durP2;ratioP2;P2;SDS_P1;SDS_P2;PMS_P1;PMS_P2;Temp;Humidity;BMP_temperature;BMP_pressure;BME280_temperature;BME280_humidity;BME280_pressure;Samples;Min_cycle;Max_cycle;Signal;HPM_P1;HPM_P2
2024/02/08 00:00:10;;;;;;;2.93;1.40;;;;;;;9.10;90.68;94627.84;5011599;28;20764;-85
2024/02/08 00:02:37;;;;;;;1.70;1.33;;;;;;;8.96;91.37;94642.41;5005878;28;20210;-85
2024/02/08 00:05:06;;;;;;;2.87;1.40;;;;;;;8.90;92.22;94644.94;5011765;28;20247;-85
2024/02/08 00:07:33;;;;;;;1.20;1.10;;;;;;;8.89;92.44;94646.72;5011693;28;20772;-85
2024/02/08 00:10:07;;;;;;;2.70;1.40;;;;;;;8.90;92.95;94665.47;5011123;28;20203;-85
2024/02/08 00:12:34;;;;;;;1.77;1.10;;;;;;;8.91;92.93;94652.44;4996645;28;20210;-85
2024/02/08 00:15:01;;;;;;;1.40;1.30;;;;;;;8.81;92.32;94639.16;5012522;28;20651;-84
2024/02/08 00:17:29;;;;;;;1.83;1.40;;;;;;;8.75;93.12;94646.81;5010346;28;20289;-85
2024/02/08 00:20:01;;;;;;;2.03;1.30;;;;;;;8.77;93.69;94668.75;5016992;28;20201;-85
2024/02/08 00:22:28;;;;;;;2.87;1.33;;;;;;;8.84;93.27;94656.75;5018569;28;20212;-84
2024/02/08 00:24:55;;;;;;;1.67;1.30;;;;;;;8.82;92.95;94653.59;5016534;28;20226;-84
2024/02/08 00:27:23;;;;;;;1.20;1.10;;;;;;;8.83;92.96;94652.63;5016849;28;20202;-86
2024/02/08 00:29:49;;;;;;;1.43;1.33;;;;;;;8.86;92.56;94631.69;5011359;28;20207;-84
2024/02/08 00:32:18;;;;;;;1.33;1.10;;;;;;;8.90;91.68;94616.69;5010006;28;20254;-85
2024/02/08 00:34:48;;;;;;;1.90;1.10;;;;;;;9.03;91.19;94619.34;5006973;28;20253;-84
2024/02/08 00:37:15;;;;;;;1.13;1.00;;;;;;;9.04;90.69;94591.91;5010220;28;20662;-84
2024/02/08 00:39:43;;;;;;;1.20;1.10;;;;;;;8.92;90.97;94602.69;5010105;28;20286;-85
2024/02/08 00:42:16;;;;;;;2.27;1.20;;;;;;;8.91;90.64;94601.09;5011090;28;20281;-85
2024/02/08 00:45:08;;;;;;;0.83;0.83;;;;;;;8.99;90.40;94589.91;5010641;28;20215;-84
2024/02/08 00:47:50;;;;;;;1.43;1.10;;;;;;;9.03;90.06;94580.03;5011163;28;20199;-85
2024/02/08 00:50:21;;;;;;;1.73;1.07;;;;;;;9.06;89.60;94583.00;5010583;28;20210;-85
2024/02/08 00:52:52;;;;;;;1.50;0.93;;;;;;;8.96;88.79;94554.34;5010671;28;20647;-85
2024/02/08 00:55:33;;;;;;;1.23;0.90;;;;;;;9.04;89.33;94564.44;5008477;28;20314;-85
2024/02/08 00:58:05;;;;;;;0.80;0.80;;;;;;;9.03;89.27;94567.22;5010321;28;20206;-84
2024/02/08 01:00:40;;;;;;;1.13;0.80;;;;;;;8.98;89.23;94557.50;5011352;28;20725;-85
2024/02/08 01:03:15;;;;;;;1.20;0.90;;;;;;;9.01;88.93;94546.88;5009526;28;20198;-85
2024/02/08 01:06:05;;;;;;;1.03;0.70;;;;;;;9.02;88.59;94560.50;5012064;28;20227;-85
2024/02/08 01:08:33;;;;;;;1.63;0.80;;;;;;;9.05;88.20;94542.09;5012873;28;20221;-85
2024/02/08 01:11:05;;;;;;;0.73;0.70;;;;;;;9.12;87.92;94532.66;5011171;28;20200;-85
2024/02/08 01:13:36;;;;;;;0.80;0.80;;;;;;;9.16;87.73;94524.38;4993161;28;20286;-85
2024/02/08 01:16:14;;;;;;;0.70;0.70;;;;;;;9.20;87.48;94530.72;5011971;28;20287;-85
2024/02/08 01:18:46;;;;;;;0.80;0.70;;;;;;;9.28;87.01;94522.03;5012615;28;20664;-84
2024/02/08 01:21:16;;;;;;;0.87;0.70;;;;;;;9.33;86.61;94525.59;5008829;28;20595;-84
2024/02/08 01:24:06;;;;;;;0.70;0.70;;;;;;;9.35;85.92;94512.56;5012496;28;20302;-85
2024/02/08 01:26:33;;;;;;;0.80;0.80;;;;;;;9.33;85.77;94499.13;5012840;28;20199;-84
2024/02/08 01:29:10;;;;;;;0.90;0.70;;;;;;;9.25;86.54;94491.59;5013213;28;20194;-84
2024/02/08 01:31:40;;;;;;;0.70;0.70;;;;;;;9.30;86.45;94507.22;5002326;28;20192;-84
2024/02/08 01:34:15;;;;;;;0.57;0.57;;;;;;;9.38;86.48;94513.97;5006185;28;20215;-85
2024/02/08 01:36:52;;;;;;;0.60;0.60;;;;;;;9.42;86.13;94507.47;5012444;28;20206;-85
2024/02/08 01:39:34;;;;;;;0.60;0.60;;;;;;;9.43;85.95;94498.78;5010561;28;20222;-85
2024/02/08 01:42:14;;;;;;;0.60;0.60;;;;;;;9.50;85.44;94474.66;5012453;28;20731;-85
2024/02/08 01:44:51;;;;;;;0.60;0.60;;;;;;;9.45;85.08;94461.59;5012639;28;20214;-85
2024/02/08 01:47:20;;;;;;;1.10;0.60;;;;;;;9.43;85.00;94455.09;4992385;28;20254;-85
2024/02/08 01:49:53;;;;;;;0.50;0.50;;;;;;;9.43;85.24;94461.00;4992616;28;20210;-86
2024/02/08 01:52:33;;;;;;;0.70;0.63;;;;;;;9.47;85.01;94459.63;5007164;28;20203;-85
2024/02/08 01:55:02;;;;;;;0.73;0.73;;;;;;;9.53;84.78;94456.28;5011813;28;20384;-85
2024/02/08 01:57:38;;;;;;;0.60;0.60;;;;;;;9.55;84.22;94430.38;5011910;28;20238;-85
2024/02/08 02:00:08;;;;;;;0.60;0.60;;;;;;;9.66;83.56;94425.44;5012156;28;20213;-85
2024/02/08 02:02:36;;;;;;;0.80;0.60;;;;;;;9.64;83.55;94411.19;5012028;28;20309;-85
2024/02/08 02:05:21;;;;;;;0.70;0.70;;;;;;;9.67;83.20;94419.31;5014762;28;20223;-85
2024/02/08 02:08:08;;;;;;;1.40;0.60;;;;;;;9.64;82.61;94408.63;5017783;28;20203;-84
2024/02/08 02:10:37;;;;;;;0.70;0.50;;;;;;;9.65;82.97;94416.13;5014116;28;20252;-85
2024/02/08 02:13:27;;;;;;;0.43;0.30;;;;;;;9.68;82.82;94402.09;5016276;28;20257;-85
2024/02/08 02:16:06;;;;;;;0.50;0.50;;;;;;;9.66;82.45;94393.78;5014098;28;20217;-85
2024/02/08 02:18:39;;;;;;;0.50;0.50;;;;;;;9.65;82.83;94393.00;5011483;28;20265;-85
2024/02/08 02:21:13;;;;;;;0.60;0.60;;;;;;;9.77;82.68;94400.13;5009051;28;20219;-85
2024/02/08 02:23:46;;;;;;;0.60;0.57;;;;;;;9.81;82.44;94389.25;4991570;28;20237;-85
2024/02/08 02:26:18;;;;;;;0.50;0.50;;;;;;;9.82;82.42;94385.66;4999527;28;20215;-84
2024/02/08 02:28:58;;;;;;;;;;;;;;;;;;;;;
2024/02/08 02:31:41;;;;;;;0.50;0.50;;;;;;;9.83;82.50;94384.66;5010994;28;20199;-85
2024/02/08 02:34:16;;;;;;;0.50;0.50;;;;;;;9.90;82.29;94390.59;5010653;28;20226;-85
2024/02/08 02:39:31;;;;;;;0.57;0.53;;;;;;;9.81;82.81;94384.09;5009988;28;20206;-85
2024/02/08 02:42:06;;;;;;;0.57;0.57;;;;;;;9.84;83.07;94403.47;5009847;28;20242;-85
2024/02/08 02:44:47;;;;;;;1.50;0.53;;;;;;;9.90;82.70;94400.09;5010358;28;20229;-85
2024/02/08 02:47:25;;;;;;;0.50;0.50;;;;;;;9.89;82.91;94407.00;5010722;28;20210;-85
2024/02/08 02:49:55;;;;;;;0.77;0.50;;;;;;;9.86;83.19;94415.13;5010427;28;20678;-84
2024/02/08 02:52:43;;;;;;;0.87;0.60;;;;;;;9.93;83.39;94417.69;5010465;28;20720;-85
2024/02/08 02:55:43;;;;;;;0.47;0.40;;;;;;;9.91;83.62;94427.38;4990676;28;20224;-85
2024/02/08 02:58:20;;;;;;;0.73;0.60;;;;;;;9.92;84.07;94427.19;4988785;28;20273;-85
2024/02/08 03:00:49;;;;;;;0.60;0.60;;;;;;;9.88;84.28;94431.13;5009102;28;20291;-85
2024/02/08 03:03:30;;;;;;;0.50;0.50;;;;;;;9.86;84.75;94440.03;5009283;28;20199;-85
2024/02/08 03:05:59;;;;;;;0.40;0.40;;;;;;;9.90;84.98;94454.88;5010079;28;20198;-85
2024/02/08 03:08:37;;;;;;;0.50;0.50;;;;;;;9.96;85.41;94459.22;5010162;28;20245;-85
2024/02/08 03:11:20;;;;;;;0.40;0.40;;;;;;;9.91;85.55;94474.44;5007074;28;20626;-84
2024/02/08 03:14:04;;;;;;;0.40;0.40;;;;;;;9.87;86.37;94477.59;5001638;28;20695;-85
2024/02/08 03:16:36;;;;;;;1.23;0.57;;;;;;;9.93;86.85;94487.09;5008441;28;20211;-85
2024/02/08 03:19:15;;;;;;;0.53;0.50;;;;;;;9.92;87.69;94506.88;5010533;28;20628;-84
2024/02/08 03:21:54;;;;;;;1.07;0.50;;;;;;;9.92;88.13;94509.44;5005020;28;20227;-85
2024/02/08 03:24:37;;;;;;;0.50;0.50;;;;;;;9.87;88.80;94518.75;4999425;28;20302;-86
2024/02/08 03:27:07;;;;;;;0.40;0.40;;;;;;;9.86;88.69;94515.38;5009858;28;20214;-84
2024/02/08 03:29:41;;;;;;;0.50;0.50;;;;;;;9.91;88.51;94515.59;5008355;28;20199;-83
2024/02/08 03:35:02;;;;;;;0.50;0.50;;;;;;;9.83;88.69;94535.53;5007930;28;20605;-84
2024/02/08 03:37:30;;;;;;;0.57;0.40;;;;;;;9.94;88.29;94512.63;5009101;28;20636;-85
2024/02/08 03:39:59;;;;;;;0.50;0.50;;;;;;;9.93;88.39;94505.91;5008752;28;20671;-85
2024/02/08 03:42:35;;;;;;;0.60;0.60;;;;;;;9.99;87.56;94492.25;5009268;28;20643;-85
2024/02/08 03:45:06;;;;;;;0.50;0.50;;;;;;;10.00;87.21;94493.03;4989777;28;20810;-85
2024/02/08 03:47:40;;;;;;;0.40;0.40;;;;;;;10.02;87.30;94496.19;4998884;28;20669;-85
2024/02/08 03:50:12;;;;;;;0.70;0.50;;;;;;;9.93;87.46;94499.97;5008310;28;20213;-85
2024/02/08 03:52:38;;;;;;;0.50;0.50;;;;;;;10.05;86.71;94481.16;5009166;28;20209;-85
2024/02/08 03:55:08;;;;;;;0.40;0.40;;;;;;;10.12;86.33;94460.56;5009776;28;20254;-85
2024/02/08 03:57:36;;;;;;;0.50;0.50;;;;;;;10.13;86.76;94485.31;5009227;28;20203;-85
2024/02/08 04:00:04;;;;;;;0.73;0.50;;;;;;;10.09;87.61;94491.03;5009530;28;20199;-85
2024/02/08 04:02:34;;;;;;;0.87;0.60;;;;;;;10.07;88.30;94518.72;5008357;28;20258;-85
2024/02/08 04:05:05;;;;;;;0.40;0.40;;;;;;;9.99;90.61;94545.47;5008216;28;20269;-85
2024/02/08 04:07:45;;;;;;;0.50;0.50;;;;;;;9.96;92.38;94574.91;5009448;28;20221;-86
2024/02/08 04:10:19;;;;;;;0.60;0.60;;;;;;;9.84;94.29;94593.69;4997941;28;20280;-85
2024/02/08 04:53:57;;;;;;;0.40;0.40;;;;;;;9.93;89.36;94481.97;5011911;28;20265;-85
2024/02/08 04:56:23;;;;;;;0.47;0.30;;;;;;;10.00;88.20;94487.91;5011157;28;20194;-86
2024/02/08 04:58:50;;;;;;;0.40;0.40;;;;;;;9.91;87.83;94458.22;5003809;28;20207;-86
2024/02/08 05:01:20;;;;;;;0.40;0.40;;;;;;;9.92;88.13;94470.09;5033635;28;20187;-85
2024/02/08 05:03:47;;;;;;;0.33;0.33;;;;;;;9.97;87.73;94458.22;5014836;28;20223;-86
2024/02/08 05:06:18;;;;;;;0.43;0.43;;;;;;;9.95;87.17;94447.34;5013200;28;20195;-86
2024/02/08 05:08:46;;;;;;;0.40;0.40;;;;;;;9.98;87.02;94454.66;5011310;28;20693;-86
2024/02/08 05:11:14;;;;;;;0.40;0.40;;;;;;;10.02;86.82;94448.13;5004233;28;20203;-86
2024/02/08 05:13:42;;;;;;;0.40;0.40;;;;;;;9.98;86.43;94446.97;5006332;28;20233;-85
2024/02/08 05:16:14;;;;;;;0.93;0.50;;;;;;;9.99;86.48;94443.41;5002783;28;20206;-85
2024/02/08 05:18:42;;;;;;;0.37;0.37;;;;;;;10.06;86.39;94445.94;5010738;28;20195;-86
2024/02/08 05:21:14;;;;;;;1.67;0.30;;;;;;;10.05;85.95;94429.72;5007502;28;20192;-86
2024/02/08 05:23:41;;;;;;;0.50;0.50;;;;;;;9.99;86.51;94414.31;4993395;28;20768;-85
2024/02/08 05:26:18;;;;;;;0.37;0.37;;;;;;;10.02;86.50;94439.63;5009769;28;20207;-86
2024/02/08 05:28:45;;;;;;;0.40;0.40;;;;;;;10.01;86.31;94443.97;5011226;28;20199;-85
2024/02/08 05:31:12;;;;;;;0.30;0.30;;;;;;;10.08;86.81;94458.59;5010557;28;20203;-85
2024/02/08 05:33:40;;;;;;;0.50;0.50;;;;;;;10.02;88.63;94480.75;5010961;28;20227;-85
2024/02/08 05:36:17;;;;;;;0.30;0.30;;;;;;;10.14;89.05;94504.88;5012161;28;20206;-86
2024/02/08 05:38:45;;;;;;;0.50;0.50;;;;;;;10.05;89.73;94503.50;5011984;28;20209;-86
2024/02/08 05:41:15;;;;;;;0.40;0.40;;;;;;;10.01;91.78;94541.66;5009594;28;20242;-85
2024/02/08 05:43:45;;;;;;;0.30;0.30;;;;;;;9.95;94.39;94573.34;5010491;28;20735;-86
2024/02/08 05:46:19;;;;;;;0.70;0.50;;;;;;;9.94;97.25;94610.31;5010475;28;20227;-85
2024/02/08 05:48:51;;;;;;;0.40;0.40;;;;;;;9.99;100.00;94661.97;5013369;28;20278;-84
2024/02/08 05:51:22;;;;;;;0.40;0.40;;;;;;;9.88;100.00;94641.94;4995581;28;20231;-86
2024/02/08 05:53:48;;;;;;;0.37;0.37;;;;;;;9.88;100.00;94648.88;4995270;28;20216;-85
2024/02/08 05:56:20;;;;;;;0.33;0.33;;;;;;;9.70;100.00;94657.13;5002521;28;20207;-85
2024/02/08 05:58:51;;;;;;;0.40;0.40;;;;;;;9.76;100.00;94655.56;5013684;28;20265;-84
2024/02/08 06:01:20;;;;;;;0.60;0.60;;;;;;;9.79;100.00;94663.69;5013811;28;20203;-84
2024/02/08 06:03:47;;;;;;;3.30;0.40;;;;;;;9.76;100.00;94653.00;5013348;28;20242;-84
2024/02/08 06:06:26;;;;;;;0.40;0.40;;;;;;;9.79;100.00;94653.41;5013710;28;20203;-85
2024/02/08 06:08:56;;;;;;;0.70;0.60;;;;;;;9.79;100.00;94634.63;5013622;28;20712;-85
2024/02/08 06:11:24;;;;;;;0.50;0.50;;;;;;;9.71;100.00;94630.44;5006219;28;20683;-85
2024/02/08 06:13:55;;;;;;;0.53;0.50;;;;;;;9.67;100.00;94636.94;5013218;28;20214;-84
2024/02/08 06:16:33;;;;;;;0.40;0.40;;;;;;;9.73;100.00;94643.91;5011580;28;20206;-85
2024/02/08 06:19:02;;;;;;;0.40;0.40;;;;;;;9.77;99.07;94629.69;5012166;28;20213;-84
2024/02/08 06:21:39;;;;;;;0.83;0.50;;;;;;;9.80;98.47;94616.44;5012567;28;20199;-87
2024/02/08 06:24:29;;;;;;;0.97;0.40;;;;;;;9.79;97.54;94601.22;5012512;28;20249;-86
2024/02/08 06:27:01;;;;;;;0.40;0.40;;;;;;;9.78;97.38;94609.91;5013451;28;20293;-85
2024/02/08 06:29:38;;;;;;;0.53;0.40;;;;;;;9.87;96.51;94588.16;5014621;28;20223;-86
2024/02/08 06:32:23;;;;;;;0.30;0.30;;;;;;;9.80;96.27;94574.53;5013151;28;20294;-84
2024/02/08 06:34:55;;;;;;;0.60;0.50;;;;;;;9.91;95.25;94561.84;5013657;28;20230;-84
2024/02/08 06:37:31;;;;;;;0.40;0.40;;;;;;;9.86;94.51;94546.22;5014217;28;20206;-84
2024/02/08 06:40:00;;;;;;;0.40;0.40;;;;;;;9.85;94.76;94556.69;5013714;28;20581;-84
2024/02/08 06:42:44;;;;;;;0.40;0.40;;;;;;;9.84;94.57;94537.13;5018869;28;20233;-84
2024/02/08 06:45:25;;;;;;;0.97;0.50;;;;;;;9.88;93.94;94533.97;5015937;28;20851;-83
2024/02/08 06:48:14;;;;;;;0.40;0.40;;;;;;;9.92;93.29;94522.31;5018706;28;20206;-84
2024/02/08 07:39:30;;;;;;;0.40;0.40;;;;;;;10.91;81.87;94328.22;5010856;28;20205;-87
2024/02/08 07:41:53;;;;;;;1.00;0.50;;;;;;;11.75;76.44;94212.41;5009938;28;20269;-87
2024/02/08 07:44:22;;;;;;;0.40;0.40;;;;;;;12.18;73.74;94117.84;5009378;28;20717;-87
2024/02/08 07:46:49;;;;;;;0.40;0.40;;;;;;;12.31;71.60;94055.72;5008944;28;20199;-85
2024/02/08 07:49:15;;;;;;;0.50;0.50;;;;;;;12.38;71.15;94023.63;5010654;28;20704;-86
2024/02/08 07:51:50;;;;;;;0.87;0.40;;;;;;;12.39;70.72;94014.84;5032557;28;20233;-87
2024/02/08 07:54:20;;;;;;;0.50;0.50;;;;;;;12.10;71.43;94036.41;5050143;28;20221;-87
2024/02/08 07:56:50;;;;;;;0.40;0.40;;;;;;;11.82;72.50;94065.41;5050384;28;20572;-86
2024/02/08 08:06:06;;;;;;;0.40;0.40;;;;;;;11.75;73.70;94118.81;5059204;23;20243;-86
2024/02/08 08:11:45;;;;;;;0.40;0.40;;;;;;;11.79;72.84;94091.63;4920952;29;20207;-85
2024/02/08 08:17:59;;;;;;;0.40;0.40;;;;;;;11.54;73.59;94099.50;5053551;28;20410;-84
2024/02/08 08:25:00;;;;;;;0.80;0.50;;;;;;;11.48;74.20;94115.03;5050846;28;20231;-86
2024/02/08 08:29:42;;;;;;;0.47;0.47;;;;;;;11.51;74.36;94128.28;5051148;28;20229;-86
2024/02/08 08:30:27;;;;;;;1.47;0.40;;;;;;;11.56;73.92;94130.97;4992834;28;20204;-87
2024/02/08 08:33:58;;;;;;;0.40;0.40;;;;;;;11.55;73.62;94118.28;5052405;28;20250;-85
2024/02/08 08:36:34;;;;;;;0.50;0.40;;;;;;;11.62;73.93;94131.91;5050540;28;20205;-84
2024/02/08 08:43:10;;;;;;;0.50;0.50;;;;;;;11.71;72.92;94126.22;5042213;28;20235;-84
2024/02/08 08:45:59;;;;;;;0.40;0.40;;;;;;;11.69;73.28;94110.19;5010370;28;20226;-85
2024/02/08 08:48:31;;;;;;;0.30;0.30;;;;;;;11.76;73.20;94116.06;5032232;28;20209;-85
2024/02/08 08:57:12;;;;;;;0.40;0.40;;;;;;;11.72;72.86;94088.34;5030633;28;20209;-84
2024/02/08 08:59:56;;;;;;;0.40;0.40;;;;;;;11.81;72.34;94069.00;5031027;28;20224;-84
2024/02/08 09:03:28;;;;;;;0.80;0.80;;;;;;;11.88;72.00;94066.31;5018165;28;20214;-84
2024/02/08 09:06:38;;;;;;;0.60;0.60;;;;;;;12.00;71.77;94047.28;4894770;29;20211;-84
2024/02/08 09:12:29;;;;;;;0.50;0.50;;;;;;;12.30;70.29;94016.22;5007375;28;20199;-84
2024/02/08 09:15:29;;;;;;;0.47;0.40;;;;;;;12.44;69.78;94002.06;5011420;28;20756;-85
2024/02/08 09:18:08;;;;;;;0.43;0.43;;;;;;;12.47;69.56;93984.56;5013093;28;20207;-85
2024/02/08 09:21:05;;;;;;;0.30;0.30;;;;;;;12.40;69.46;93995.00;5013998;28;20202;-84
2024/02/08 09:23:44;;;;;;;0.40;0.40;;;;;;;12.44;69.78;94003.88;4994210;28;20306;-84
2024/02/08 09:29:56;;;;;;;0.80;0.60;;;;;;;12.49;69.55;93985.13;4987908;28;20214;-84
2024/02/08 09:35:40;;;;;;;0.33;0.33;;;;;;;12.54;69.34;93987.78;5014282;28;20257;-84
2024/02/08 09:41:25;;;;;;;0.40;0.40;;;;;;;12.59;69.17;93977.56;4974632;28;20611;-85
2024/02/08 09:44:09;;;;;;;0.40;0.40;;;;;;;12.60;69.01;93989.47;5011581;28;20233;-84
2024/02/08 09:47:05;;;;;;;0.73;0.40;;;;;;;12.67;68.90;93984.97;5012357;28;20203;-84
2024/02/08 09:55:55;;;;;;;0.40;0.40;;;;;;;12.92;68.40;93967.38;4927285;29;20659;-84
2024/02/08 09:58:34;;;;;;;0.40;0.40;;;;;;;12.96;67.78;93931.53;4947701;29;20211;-87
2024/02/08 10:01:02;;;;;;;0.50;0.50;;;;;;;13.09;67.67;93928.66;4952192;29;20240;-85
2024/02/08 10:04:04;;;;;;;1.20;0.50;;;;;;;13.11;67.37;93911.13;4951372;29;20228;-84
2024/02/08 10:06:56;;;;;;;0.65;0.40;;;;;;;13.29;66.76;93879.13;5012422;28;20210;-84
2024/02/08 10:09:38;;;;;;;0.43;0.32;;;;;;;13.42;66.78;93879.63;5013309;28;20253;-84
2024/02/08 10:12:11;;;;;;;0.30;0.30;;;;;;;13.62;66.04;93840.34;5002190;28;20246;-84
2024/02/08 10:14:41;;;;;;;0.45;0.45;;;;;;;13.71;66.11;93830.38;5000517;28;20226;-85
2024/02/08 10:17:18;;;;;;;0.52;0.35;;;;;;;13.65;65.51;93821.00;5012388;28;20211;-85
2024/02/08 10:22:42;;;;;;;0.30;0.30;;;;;;;13.65;65.08;93789.97;4998396;28;20196;-85
2024/02/08 10:28:21;;;;;;;0.60;0.57;;;;;;;13.85;64.98;93797.19;4995135;28;20334;-84
2024/02/08 10:31:05;;;;;;;0.50;0.50;;;;;;;13.78;64.33;93763.75;5004736;28;20199;-84
2024/02/08 10:33:37;;;;;;;0.30;0.30;;;;;;;13.68;64.58;93764.38;5011978;28;20289;-85
2024/02/08 10:36:39;;;;;;;0.35;0.35;;;;;;;13.79;64.34;93766.09;5011883;28;20257;-84
2024/02/08 10:39:25;;;;;;;0.38;0.38;;;;;;;13.84;63.84;93734.34;4990582;28;20207;-85
2024/02/08 10:42:38;;;;;;;0.30;0.30;;;;;;;13.91;63.84;93726.38;4991454;28;20264;-84
2024/02/08 10:45:18;;;;;;;0.38;0.38;;;;;;;14.18;63.57;93714.25;4991657;28;20238;-84
2024/02/08 10:47:50;;;;;;;0.30;0.30;;;;;;;14.51;63.06;93685.56;4981548;28;20231;-85
2024/02/08 10:50:20;;;;;;;0.60;0.40;;;;;;;14.57;62.96;93681.22;5012958;28;20297;-85
2024/02/08 10:52:51;;;;;;;0.98;0.35;;;;;;;14.71;62.53;93668.63;5001081;28;20199;-85
2024/02/08 10:55:21;;;;;;;1.30;0.47;;;;;;;14.84;62.31;93648.25;4997106;28;20278;-84
2024/02/08 10:58:20;;;;;;;0.95;0.40;;;;;;;14.86;62.01;93640.22;4994985;28;20203;-84
2024/02/08 11:01:06;;;;;;;0.75;0.40;;;;;;;14.62;62.27;93634.66;4994855;28;20207;-84
2024/02/08 11:03:36;;;;;;;0.22;0.22;;;;;;;14.71;62.41;93646.09;5005226;28;20233;-85
2024/02/08 11:06:25;;;;;;;0.52;0.40;;;;;;;14.90;62.16;93628.34;5015897;28;20229;-84
2024/02/08 11:09:03;;;;;;;3.40;0.38;;;;;;;15.00;61.86;93610.25;5015826;28;20210;-84
2024/02/08 11:11:34;;;;;;;0.50;0.50;;;;;;;15.03;61.97;93616.72;5008781;28;20604;-84
2024/02/08 11:14:08;;;;;;;0.30;0.30;;;;;;;14.93;61.79;93604.53;4995488;28;20823;-84
2024/02/08 11:16:37;;;;;;;0.30;0.30;;;;;;;14.92;62.24;93602.19;4994836;28;20214;-85
2024/02/08 11:19:05;;;;;;;0.30;0.30;;;;;;;14.88;62.08;93607.06;4997046;28;20203;-85
2024/02/08 11:21:43;;;;;;;0.43;0.30;;;;;;;14.64;62.65;93636.97;5004589;28;20242;-85
2024/02/08 11:24:09;;;;;;;0.40;0.40;;;;;;;14.61;63.13;93664.16;4991092;28;20317;-85
2024/02/08 11:26:39;;;;;;;0.30;0.30;;;;;;;14.35;63.63;93685.66;4993687;28;20212;-85
2024/02/08 11:29:18;;;;;;;0.22;0.22;;;;;;;14.24;64.18;93697.72;4995215;28;20289;-84
2024/02/08 11:31:46;;;;;;;0.73;0.40;;;;;;;14.26;64.47;93716.38;4994640;28;20199;-83
2024/02/08 11:34:24;;;;;;;0.70;0.30;;;;;;;14.34;64.46;93710.00;5007504;28;20222;-85
2024/02/08 11:36:53;;;;;;;0.30;0.30;;;;;;;14.14;64.77;93705.41;5014211;28;20642;-84
2024/02/08 11:39:27;;;;;;;0.30;0.30;;;;;;;14.09;64.66;93710.53;5012366;28;20222;-84
2024/02/08 11:42:00;;;;;;;1.02;0.60;;;;;;;14.31;66.01;93801.88;5012424;28;20747;-85
2024/02/08 11:44:29;;;;;;;1.13;0.60;;;;;;;14.54;64.04;93694.66;5009135;28;20223;-88
2024/02/08 11:46:59;;;;;;;0.30;0.30;;;;;;;14.49;63.70;93668.72;5008943;28;20323;-85
2024/02/08 11:49:32;;;;;;;1.08;0.30;;;;;;;14.46;63.76;93657.03;4999991;28;20304;-85
2024/02/08 11:52:02;;;;;;;0.65;0.45;;;;;;;14.27;64.47;93675.75;5007471;28;20838;-85
2024/02/08 11:54:29;;;;;;;0.35;0.32;;;;;;;14.17;64.63;93697.16;5008750;28;20234;-85
2024/02/08 11:56:58;;;;;;;0.40;0.40;;;;;;;14.25;64.67;93704.47;5008623;28;20211;-85
2024/02/08 11:59:26;;;;;;;0.20;0.20;;;;;;;14.27;65.04;93717.94;5008810;28;20317;-86
2024/02/08 12:01:58;;;;;;;0.50;0.50;;;;;;;14.30;66.17;93768.44;5008280;28;20859;-86
2024/02/08 12:04:27;;;;;;;0.38;0.38;;;;;;;14.27;66.14;93774.91;5008316;28;20696;-86
2024/02/08 12:07:02;;;;;;;2.22;0.50;;;;;;;14.24;65.80;93743.56;5007571;28;20238;-85
2024/02/08 12:09:32;;;;;;;0.30;0.30;;;;;;;14.31;65.78;93749.31;5008219;28;20876;-86
2024/02/08 12:12:03;;;;;;;0.40;0.40;;;;;;;14.27;65.61;93743.81;4997411;28;20209;-85
2024/02/08 12:14:29;;;;;;;0.40;0.40;;;;;;;14.27;65.74;93750.81;4988691;28;20258;-86
2024/02/08 12:16:58;;;;;;;0.55;0.30;;;;;;;14.09;65.49;93744.16;4988702;28;20213;-85
2024/02/08 12:19:30;;;;;;;0.30;0.30;;;;;;;13.98;66.25;93758.81;4988633;28;20229;-86
2024/02/08 12:22:03;;;;;;;0.85;0.50;;;;;;;14.00;66.73;93774.09;4998602;28;20205;-85
2024/02/08 12:24:31;;;;;;;0.35;0.35;;;;;;;13.99;66.88;93773.31;5006763;28;20324;-86
2024/02/08 12:27:08;;;;;;;0.30;0.30;;;;;;;14.14;66.28;93760.53;5008197;28;20272;-86
2024/02/08 12:29:41;;;;;;;0.40;0.40;;;;;;;14.23;66.02;93750.53;5003342;28;20331;-87
2024/02/08 12:32:16;;;;;;;0.50;0.50;;;;;;;14.21;65.92;93738.88;4976744;28;20266;-86
2024/02/08 12:34:47;;;;;;;0.30;0.30;;;;;;;14.06;66.02;93739.47;4987861;28;20830;-86
2024/02/08 12:37:15;;;;;;;0.40;0.40;;;;;;;14.10;66.24;93743.13;4989074;28;20276;-86
2024/02/08 12:39:44;;;;;;;0.38;0.38;;;;;;;14.10;66.41;93756.84;4994134;28;20218;-85
2024/02/08 12:42:23;;;;;;;2.33;0.40;;;;;;;14.02;66.65;93761.69;5007808;28;20238;-86
2024/02/08 12:44:50;;;;;;;0.40;0.40;;;;;;;13.98;66.87;93753.63;4999352;28;20632;-87
2024/02/08 12:47:17;;;;;;;0.30;0.30;;;;;;;14.00;67.69;93799.97;4994191;28;20701;-86
2024/02/08 12:49:46;;;;;;;0.77;0.60;;;;;;;13.90;67.34;93789.47;4988026;28;20210;-86
2024/02/08 12:52:17;;;;;;;0.73;0.40;;;;;;;13.93;67.55;93791.59;4988278;28;20211;-85
2024/02/08 12:54:45;;;;;;;0.55;0.40;;;;;;;13.91;67.46;93798.81;4987622;28;20231;-86
2024/02/08 12:57:14;;;;;;;0.30;0.30;;;;;;;13.81;68.14;93792.50;5005628;28;20557;-86
2024/02/08 12:59:42;;;;;;;0.30;0.30;;;;;;;13.70;67.98;93797.78;5007861;28;20210;-87
2024/02/08 13:02:17;;;;;;;0.40;0.40;;;;;;;13.64;68.58;93814.25;5010850;28;20203;-86
2024/02/08 13:04:45;;;;;;;0.63;0.50;;;;;;;13.70;68.43;93816.66;5011562;28;20226;-85
2024/02/08 13:07:45;;;;;;;1.42;0.32;;;;;;;13.67;68.43;93818.94;5011165;28;20203;-86
2024/02/08 13:10:15;;;;;;;0.32;0.32;;;;;;;13.70;68.62;93823.63;5003521;28;20214;-87
2024/02/08 13:12:46;;;;;;;0.30;0.30;;;;;;;13.63;68.71;93818.66;5003540;28;20211;-86
2024/02/08 13:15:20;;;;;;;0.40;0.40;;;;;;;13.59;69.20;93838.25;5010905;28;20231;-86
2024/02/08 13:17:47;;;;;;;0.30;0.30;;;;;;;13.55;69.29;93839.72;5011276;28;20210;-86
2024/02/08 13:20:14;;;;;;;0.35;0.35;;;;;;;13.54;69.41;93827.03;5011129;28;20205;-86
2024/02/08 13:22:49;;;;;;;2.65;0.50;;;;;;;13.41;69.63;93830.75;4995081;28;20239;-86
2024/02/08 13:25:16;;;;;;;0.40;0.40;;;;;;;13.38;69.89;93841.56;4991185;28;20321;-86
2024/02/08 13:27:44;;;;;;;0.52;0.50;;;;;;;13.34;69.99;93853.38;4994762;28;20203;-87
2024/02/08 13:30:23;;;;;;;0.50;0.50;;;;;;;13.34;69.93;93853.38;5010869;28;20871;-86
2024/02/08 13:32:51;;;;;;;0.30;0.30;;;;;;;13.41;70.86;93895.38;5012597;28;20550;-86
2024/02/08 13:35:19;;;;;;;1.33;0.40;;;;;;;13.42;69.67;93837.47;5010683;28;20223;-86
2024/02/08 13:37:56;;;;;;;0.40;0.40;;;;;;;13.37;69.46;93808.97;5011215;28;20207;-86
2024/02/08 13:40:29;;;;;;;1.75;0.50;;;;;;;13.45;69.47;93806.00;5009686;28;20199;-86
2024/02/08 13:42:56;;;;;;;1.73;0.40;;;;;;;13.43;69.10;93782.19;4990725;28;20698;-86
2024/02/08 13:45:30;;;;;;;0.40;0.40;;;;;;;13.42;69.10;93778.81;5006329;28;20706;-87
2024/02/08 13:47:57;;;;;;;0.40;0.40;;;;;;;13.40;68.71;93773.09;5010653;28;20306;-86
2024/02/08 13:50:28;;;;;;;0.43;0.43;;;;;;;13.37;68.80;93765.81;5010521;28;20203;-86
2024/02/08 13:52:55;;;;;;;0.75;0.50;;;;;;;13.35;68.57;93762.69;5012238;28;20675;-86
2024/02/08 13:55:32;;;;;;;0.50;0.50;;;;;;;13.32;68.40;93763.16;5011518;28;20229;-86
2024/02/08 13:58:00;;;;;;;1.37;0.70;;;;;;;13.37;68.86;93776.16;5010696;28;20230;-86
2024/02/08 14:00:30;;;;;;;0.60;0.50;;;;;;;13.27;68.59;93767.47;5009132;28;20227;-86
2024/02/08 14:02:57;;;;;;;0.40;0.40;;;;;;;13.29;68.51;93758.44;5010436;28;20755;-86
2024/02/08 14:05:29;;;;;;;0.40;0.40;;;;;;;13.29;68.15;93742.94;5009994;28;20226;-86
2024/02/08 14:07:57;;;;;;;8.73;5.53;;;;;;;13.34;68.02;93735.25;5010740;28;20203;-86
2024/02/08 14:10:27;;;;;;;0.60;0.60;;;;;;;13.42;68.15;93742.63;5005028;28;20208;-85
2024/02/08 14:13:06;;;;;;;1.92;0.60;;;;;;;13.38;67.68;93727.81;4990124;28;20290;-86
2024/02/08 14:15:38;;;;;;;0.60;0.50;;;;;;;13.36;67.63;93720.31;4991108;28;20776;-87
2024/02/08 14:18:22;;;;;;;0.60;0.60;;;;;;;13.40;67.61;93710.28;5010788;28;20207;-85
2024/02/08 14:20:56;;;;;;;1.25;0.70;;;;;;;13.37;67.33;93700.41;5009757;28;20199;-86
2024/02/08 14:23:37;;;;;;;2.73;0.80;;;;;;;13.42;67.20;93690.13;5005843;28;20207;-85
2024/02/08 14:26:31;;;;;;;0.70;0.70;;;;;;;13.47;66.86;93685.00;4982442;28;20233;-86
2024/02/08 14:28:59;;;;;;;1.80;1.20;;;;;;;13.46;66.64;93676.50;5010364;28;20199;-86
2024/02/08 14:31:27;;;;;;;3.80;0.97;;;;;;;13.48;66.53;93653.75;5009623;28;20203;-86
2024/02/08 14:33:55;;;;;;;2.92;1.00;;;;;;;13.46;65.96;93634.34;5008450;28;20238;-86
2024/02/08 14:36:21;;;;;;;2.78;1.05;;;;;;;13.41;65.76;93601.47;5009634;28;20199;-87
2024/02/08 14:38:48;;;;;;;3.58;0.90;;;;;;;13.46;65.64;93591.19;5000491;28;20290;-86
2024/02/08 14:41:32;;;;;;;3.92;1.10;;;;;;;13.47;65.72;93613.41;5009770;28;20245;-86